Webcams Benavente

Ici, vous pouvez voir la dernière vue de une webcam en direct dans la destination de Benavente, Portugal. L’image actuelle (dernière) et l’image de jour la plus récente sont disponibles pour chaque webcam.

Maintenant Montrant [ 1-1 ] de [ 1 ]
Webcam en Benavente

Benavente › North East: AIrport, METAR: BENAV 180005Z 36004KT 17/14 Q1015

Affichage actuel ou dernier Benavente › North East: AIrport, METAR: BENAV 180005Z 36004KT 17/14 Q1015 Dernière vue de jour à partir de Benavente › North East: AIrport, METAR: BENAV 180005Z 36004KT 17/14 Q1015
Affichages Courant [Dernier] & Lumière De Jour :: Cliquez ici pour une vue grandeur nature